sensor_id;sensor_type;location;lat;lon;timestamp;temperature;humidity
44607;DHT22;30315;46.072;14.474;2023-04-25T00:04:43;13.60;83.60
44607;DHT22;30315;46.072;14.474;2023-04-25T00:07:25;13.60;83.10
44607;DHT22;30315;46.072;14.474;2023-04-25T00:10:29;13.50;82.90
44607;DHT22;30315;46.072;14.474;2023-04-25T00:13:23;13.50;83.10
44607;DHT22;30315;46.072;14.474;2023-04-25T00:16:14;13.50;83.10
44607;DHT22;30315;46.072;14.474;2023-04-25T00:19:03;13.50;83.10
44607;DHT22;30315;46.072;14.474;2023-04-25T00:22:41;13.50;83.10
44607;DHT22;30315;46.072;14.474;2023-04-25T00:28:59;13.40;83.20
44607;DHT22;30315;46.072;14.474;2023-04-25T00:31:50;13.40;83.20
44607;DHT22;30315;46.072;14.474;2023-04-25T00:34:58;13.40;83.00
44607;DHT22;30315;46.072;14.474;2023-04-25T00:39:15;13.40;83.10
44607;DHT22;30315;46.072;14.474;2023-04-25T00:42:20;13.40;83.40
44607;DHT22;30315;46.072;14.474;2023-04-25T00:45:33;13.30;83.40
44607;DHT22;30315;46.072;14.474;2023-04-25T00:48:33;13.30;83.50
44607;DHT22;30315;46.072;14.474;2023-04-25T00:54:40;13.30;83.80
44607;DHT22;30315;46.072;14.474;2023-04-25T00:57:29;13.30;83.60
44607;DHT22;30315;46.072;14.474;2023-04-25T01:01:01;13.30;83.60
44607;DHT22;30315;46.072;14.474;2023-04-25T01:03:55;13.30;83.60
44607;DHT22;30315;46.072;14.474;2023-04-25T01:07:04;13.30;83.60
44607;DHT22;30315;46.072;14.474;2023-04-25T01:09:38;13.30;83.70
44607;DHT22;30315;46.072;14.474;2023-04-25T01:13:20;13.30;83.80
44607;DHT22;30315;46.072;14.474;2023-04-25T01:16:33;13.30;83.90
44607;DHT22;30315;46.072;14.474;2023-04-25T01:19:38;13.30;83.50
44607;DHT22;30315;46.072;14.474;2023-04-25T01:33:08;13.20;83.40
44607;DHT22;30315;46.072;14.474;2023-04-25T01:36:01;13.20;83.40
44607;DHT22;30315;46.072;14.474;2023-04-25T01:38:54;13.10;83.20
44607;DHT22;30315;46.072;14.474;2023-04-25T01:42:23;13.20;83.40
44607;DHT22;30315;46.072;14.474;2023-04-25T01:48:55;13.20;83.60
44607;DHT22;30315;46.072;14.474;2023-04-25T01:52:03;13.20;83.40
44607;DHT22;30315;46.072;14.474;2023-04-25T01:55:02;12.70;82.80
44607;DHT22;30315;46.072;14.474;2023-04-25T01:58:18;13.30;83.40
44607;DHT22;30315;46.072;14.474;2023-04-25T02:01:53;13.20;83.10
44607;DHT22;30315;46.072;14.474;2023-04-25T02:04:44;13.20;83.30
44607;DHT22;30315;46.072;14.474;2023-04-25T02:22:55;13.00;84.20
44607;DHT22;30315;46.072;14.474;2023-04-25T02:25:22;13.00;84.30
44607;DHT22;30315;46.072;14.474;2023-04-25T02:27:49;13.10;84.50
44607;DHT22;30315;46.072;14.474;2023-04-25T02:30:17;13.00;84.50
44607;DHT22;30315;46.072;14.474;2023-04-25T02:32:45;13.10;84.70
44607;DHT22;30315;46.072;14.474;2023-04-25T02:35:12;13.10;84.50
44607;DHT22;30315;46.072;14.474;2023-04-25T02:37:40;13.10;84.30
44607;DHT22;30315;46.072;14.474;2023-04-25T02:40:07;13.10;84.20
44607;DHT22;30315;46.072;14.474;2023-04-25T02:42:35;13.10;84.30
44607;DHT22;30315;46.072;14.474;2023-04-25T02:45:02;13.10;84.10
44607;DHT22;30315;46.072;14.474;2023-04-25T02:47:29;13.10;83.90
44607;DHT22;30315;46.072;14.474;2023-04-25T02:49:56;13.10;84.20
44607;DHT22;30315;46.072;14.474;2023-04-25T02:52:23;13.10;84.50
44607;DHT22;30315;46.072;14.474;2023-04-25T02:54:58;13.10;84.50
44607;DHT22;30315;46.072;14.474;2023-04-25T02:57:27;13.00;84.50
44607;DHT22;30315;46.072;14.474;2023-04-25T02:59:55;13.00;84.70
44607;DHT22;30315;46.072;14.474;2023-04-25T03:02:22;13.00;84.90
44607;DHT22;30315;46.072;14.474;2023-04-25T03:04:49;13.00;85.10
44607;DHT22;30315;46.072;14.474;2023-04-25T03:07:16;13.10;85.00
44607;DHT22;30315;46.072;14.474;2023-04-25T03:09:43;13.00;84.90
44607;DHT22;30315;46.072;14.474;2023-04-25T03:12:10;13.00;84.80
44607;DHT22;30315;46.072;14.474;2023-04-25T03:14:37;13.00;84.70
44607;DHT22;30315;46.072;14.474;2023-04-25T03:17:04;13.00;84.60
44607;DHT22;30315;46.072;14.474;2023-04-25T03:19:34;13.10;84.80
44607;DHT22;30315;46.072;14.474;2023-04-25T03:22:01;13.00;84.60
44607;DHT22;30315;46.072;14.474;2023-04-25T03:24:28;13.00;84.50
44607;DHT22;30315;46.072;14.474;2023-04-25T03:26:55;13.10;84.40
44607;DHT22;30315;46.072;14.474;2023-04-25T03:29:22;13.00;84.40
44607;DHT22;30315;46.072;14.474;2023-04-25T03:31:53;13.00;84.30
44607;DHT22;30315;46.072;14.474;2023-04-25T03:34:20;12.90;84.30
44607;DHT22;30315;46.072;14.474;2023-04-25T03:36:49;12.90;84.30
44607;DHT22;30315;46.072;14.474;2023-04-25T03:39:16;13.00;84.50
44607;DHT22;30315;46.072;14.474;2023-04-25T03:41:47;13.00;84.50
44607;DHT22;30315;46.072;14.474;2023-04-25T03:44:16;13.00;84.30
44607;DHT22;30315;46.072;14.474;2023-04-25T03:46:43;12.90;84.00
44607;DHT22;30315;46.072;14.474;2023-04-25T03:49:11;12.90;84.10
44607;DHT22;30315;46.072;14.474;2023-04-25T03:52:07;12.90;84.10
44607;DHT22;30315;46.072;14.474;2023-04-25T03:54:38;13.00;84.20
44607;DHT22;30315;46.072;14.474;2023-04-25T03:57:09;12.90;84.10
44607;DHT22;30315;46.072;14.474;2023-04-25T03:59:38;12.90;84.10
44607;DHT22;30315;46.072;14.474;2023-04-25T04:02:07;12.90;84.20
44607;DHT22;30315;46.072;14.474;2023-04-25T04:04:35;12.90;84.30
44607;DHT22;30315;46.072;14.474;2023-04-25T04:07:03;12.80;84.20
44607;DHT22;30315;46.072;14.474;2023-04-25T04:09:34;12.80;84.00
44607;DHT22;30315;46.072;14.474;2023-04-25T04:12:06;12.90;84.30
44607;DHT22;30315;46.072;14.474;2023-04-25T04:14:34;12.90;84.50
44607;DHT22;30315;46.072;14.474;2023-04-25T04:17:01;12.90;84.10
44607;DHT22;30315;46.072;14.474;2023-04-25T04:19:29;12.90;84.10
44607;DHT22;30315;46.072;14.474;2023-04-25T04:22:04;12.90;84.20
44607;DHT22;30315;46.072;14.474;2023-04-25T04:24:31;12.90;84.10
44607;DHT22;30315;46.072;14.474;2023-04-25T04:27:02;12.90;84.30
44607;DHT22;30315;46.072;14.474;2023-04-25T04:29:40;12.90;84.50
44607;DHT22;30315;46.072;14.474;2023-04-25T04:32:30;12.80;84.60
44607;DHT22;30315;46.072;14.474;2023-04-25T04:34:59;12.90;85.10
44607;DHT22;30315;46.072;14.474;2023-04-25T04:37:26;12.90;85.10
44607;DHT22;30315;46.072;14.474;2023-04-25T04:39:53;12.90;85.10
44607;DHT22;30315;46.072;14.474;2023-04-25T04:42:29;12.90;85.10
44607;DHT22;30315;46.072;14.474;2023-04-25T04:45:14;13.00;85.40
44607;DHT22;30315;46.072;14.474;2023-04-25T04:48:00;13.00;85.20
44607;DHT22;30315;46.072;14.474;2023-04-25T04:50:48;13.00;85.10
44607;DHT22;30315;46.072;14.474;2023-04-25T04:53:41;13.00;84.90
44607;DHT22;30315;46.072;14.474;2023-04-25T04:56:16;12.90;84.30
44607;DHT22;30315;46.072;14.474;2023-04-25T04:58:46;12.90;84.40
44607;DHT22;30315;46.072;14.474;2023-04-25T05:01:34;13.00;84.70
44607;DHT22;30315;46.072;14.474;2023-04-25T05:04:22;13.00;84.80
44607;DHT22;30315;46.072;14.474;2023-04-25T05:06:55;12.90;84.50
44607;DHT22;30315;46.072;14.474;2023-04-25T05:09:31;12.90;84.30
44607;DHT22;30315;46.072;14.474;2023-04-25T05:12:22;13.00;84.20
44607;DHT22;30315;46.072;14.474;2023-04-25T05:15:24;13.00;83.80
44607;DHT22;30315;46.072;14.474;2023-04-25T05:18:10;13.00;83.30
44607;DHT22;30315;46.072;14.474;2023-04-25T05:21:06;12.90;82.90
44607;DHT22;30315;46.072;14.474;2023-04-25T05:23:54;13.00;83.10
44607;DHT22;30315;46.072;14.474;2023-04-25T05:26:45;13.10;83.30
44607;DHT22;30315;46.072;14.474;2023-04-25T05:29:47;12.90;82.40
44607;DHT22;30315;46.072;14.474;2023-04-25T05:32:27;13.00;82.50
44607;DHT22;30315;46.072;14.474;2023-04-25T05:34:55;13.00;82.50
44607;DHT22;30315;46.072;14.474;2023-04-25T05:37:25;13.00;82.30
44607;DHT22;30315;46.072;14.474;2023-04-25T05:39:56;13.00;82.50
44607;DHT22;30315;46.072;14.474;2023-04-25T05:42:43;13.00;82.70
44607;DHT22;30315;46.072;14.474;2023-04-25T05:45:20;13.10;83.00
44607;DHT22;30315;46.072;14.474;2023-04-25T05:48:10;13.10;83.20
44607;DHT22;30315;46.072;14.474;2023-04-25T05:50:56;13.10;83.40
44607;DHT22;30315;46.072;14.474;2023-04-25T05:53:43;13.20;83.30
44607;DHT22;30315;46.072;14.474;2023-04-25T05:56:12;13.20;82.80
44607;DHT22;30315;46.072;14.474;2023-04-25T05:58:40;13.20;82.90
44607;DHT22;30315;46.072;14.474;2023-04-25T06:01:08;13.30;82.90
44607;DHT22;30315;46.072;14.474;2023-04-25T06:03:36;13.30;83.20
44607;DHT22;30315;46.072;14.474;2023-04-25T06:06:05;13.30;83.10
44607;DHT22;30315;46.072;14.474;2023-04-25T06:08:32;13.30;83.00
44607;DHT22;30315;46.072;14.474;2023-04-25T06:10:59;13.40;82.90
44607;DHT22;30315;46.072;14.474;2023-04-25T06:13:26;13.40;82.70
44607;DHT22;30315;46.072;14.474;2023-04-25T06:15:54;13.40;82.40
44607;DHT22;30315;46.072;14.474;2023-04-25T06:18:21;13.40;82.30
44607;DHT22;30315;46.072;14.474;2023-04-25T06:20:48;13.50;82.40
44607;DHT22;30315;46.072;14.474;2023-04-25T06:23:17;13.50;82.50
44607;DHT22;30315;46.072;14.474;2023-04-25T06:25:51;13.50;82.60
44607;DHT22;30315;46.072;14.474;2023-04-25T06:28:19;13.60;82.70
44607;DHT22;30315;46.072;14.474;2023-04-25T06:30:46;13.60;82.60
44607;DHT22;30315;46.072;14.474;2023-04-25T06:33:16;13.60;81.90
44607;DHT22;30315;46.072;14.474;2023-04-25T06:35:44;13.60;81.90
44607;DHT22;30315;46.072;14.474;2023-04-25T06:38:15;13.70;82.00
44607;DHT22;30315;46.072;14.474;2023-04-25T06:40:46;13.80;81.90
44607;DHT22;30315;46.072;14.474;2023-04-25T06:43:13;13.80;82.60
44607;DHT22;30315;46.072;14.474;2023-04-25T06:46:03;13.90;82.30
44607;DHT22;30315;46.072;14.474;2023-04-25T06:48:33;14.00;82.50
44607;DHT22;30315;46.072;14.474;2023-04-25T06:51:00;14.10;82.00
44607;DHT22;30315;46.072;14.474;2023-04-25T06:53:27;14.10;81.00
44607;DHT22;30315;46.072;14.474;2023-04-25T06:55:58;14.20;80.70
44607;DHT22;30315;46.072;14.474;2023-04-25T06:58:35;14.20;80.60
44607;DHT22;30315;46.072;14.474;2023-04-25T07:01:12;14.30;80.10
44607;DHT22;30315;46.072;14.474;2023-04-25T07:03:39;14.30;80.00
44607;DHT22;30315;46.072;14.474;2023-04-25T07:06:12;14.40;79.90
44607;DHT22;30315;46.072;14.474;2023-04-25T07:08:39;14.30;79.50
44607;DHT22;30315;46.072;14.474;2023-04-25T07:11:06;14.40;79.40
44607;DHT22;30315;46.072;14.474;2023-04-25T07:13:35;14.40;79.20
44607;DHT22;30315;46.072;14.474;2023-04-25T07:16:02;14.50;79.10
44607;DHT22;30315;46.072;14.474;2023-04-25T07:18:32;14.40;78.80
44607;DHT22;30315;46.072;14.474;2023-04-25T07:20:59;14.40;79.30
44607;DHT22;30315;46.072;14.474;2023-04-25T07:23:27;14.50;79.50
44607;DHT22;30315;46.072;14.474;2023-04-25T07:25:54;14.60;79.30
44607;DHT22;30315;46.072;14.474;2023-04-25T07:28:24;14.60;78.60
44607;DHT22;30315;46.072;14.474;2023-04-25T07:30:51;14.60;78.30
44607;DHT22;30315;46.072;14.474;2023-04-25T07:33:18;14.70;77.90
44607;DHT22;30315;46.072;14.474;2023-04-25T07:35:47;14.60;77.60
44607;DHT22;30315;46.072;14.474;2023-04-25T07:38:14;14.70;78.00
44607;DHT22;30315;46.072;14.474;2023-04-25T07:40:41;14.70;77.20
44607;DHT22;30315;46.072;14.474;2023-04-25T07:43:10;14.70;76.70
44607;DHT22;30315;46.072;14.474;2023-04-25T07:45:58;14.70;76.50
44607;DHT22;30315;46.072;14.474;2023-04-25T07:48:27;14.90;76.40
44607;DHT22;30315;46.072;14.474;2023-04-25T07:50:55;14.70;76.10
44607;DHT22;30315;46.072;14.474;2023-04-25T07:53:23;14.70;75.70
44607;DHT22;30315;46.072;14.474;2023-04-25T07:55:55;14.70;75.60
44607;DHT22;30315;46.072;14.474;2023-04-25T07:58:22;14.70;75.90
44607;DHT22;30315;46.072;14.474;2023-04-25T08:00:53;14.80;76.10
44607;DHT22;30315;46.072;14.474;2023-04-25T08:03:40;14.80;76.10
44607;DHT22;30315;46.072;14.474;2023-04-25T08:06:14;14.80;76.40
44607;DHT22;30315;46.072;14.474;2023-04-25T08:08:50;15.00;76.80
44607;DHT22;30315;46.072;14.474;2023-04-25T08:11:20;15.10;76.60
44607;DHT22;30315;46.072;14.474;2023-04-25T08:13:48;15.10;76.40
44607;DHT22;30315;46.072;14.474;2023-04-25T08:16:15;15.30;76.20
44607;DHT22;30315;46.072;14.474;2023-04-25T08:18:42;15.30;75.10
44607;DHT22;30315;46.072;14.474;2023-04-25T08:21:09;15.40;74.60
44607;DHT22;30315;46.072;14.474;2023-04-25T08:23:38;15.50;73.60
44607;DHT22;30315;46.072;14.474;2023-04-25T08:26:12;15.60;72.70
44607;DHT22;30315;46.072;14.474;2023-04-25T08:28:41;15.60;71.80
44607;DHT22;30315;46.072;14.474;2023-04-25T08:31:08;15.70;71.80
44607;DHT22;30315;46.072;14.474;2023-04-25T08:33:51;15.80;71.30
44607;DHT22;30315;46.072;14.474;2023-04-25T08:36:30;15.80;70.90
44607;DHT22;30315;46.072;14.474;2023-04-25T08:39:26;15.90;70.70
44607;DHT22;30315;46.072;14.474;2023-04-25T08:42:16;15.90;70.20
44607;DHT22;30315;46.072;14.474;2023-04-25T08:44:44;16.00;70.30
44607;DHT22;30315;46.072;14.474;2023-04-25T08:47:12;16.10;70.30
44607;DHT22;30315;46.072;14.474;2023-04-25T08:49:45;16.20;70.40
44607;DHT22;30315;46.072;14.474;2023-04-25T08:52:14;16.30;69.80
44607;DHT22;30315;46.072;14.474;2023-04-25T08:54:48;16.30;68.80
44607;DHT22;30315;46.072;14.474;2023-04-25T08:57:17;16.40;68.60
44607;DHT22;30315;46.072;14.474;2023-04-25T08:59:46;16.40;68.80
44607;DHT22;30315;46.072;14.474;2023-04-25T09:02:15;16.50;69.00
44607;DHT22;30315;46.072;14.474;2023-04-25T09:04:47;16.50;69.20
44607;DHT22;30315;46.072;14.474;2023-04-25T09:07:15;16.60;69.80
44607;DHT22;30315;46.072;14.474;2023-04-25T09:09:45;16.70;69.90
44607;DHT22;30315;46.072;14.474;2023-04-25T09:12:18;16.70;69.10
44607;DHT22;30315;46.072;14.474;2023-04-25T09:15:03;16.80;68.20
44607;DHT22;30315;46.072;14.474;2023-04-25T09:18:02;16.90;67.10
44607;DHT22;30315;46.072;14.474;2023-04-25T09:20:43;16.90;66.40
44607;DHT22;30315;46.072;14.474;2023-04-25T09:23:30;16.80;66.60
44607;DHT22;30315;46.072;14.474;2023-04-25T09:26:07;16.90;66.90
44607;DHT22;30315;46.072;14.474;2023-04-25T09:28:35;17.00;67.30
44607;DHT22;30315;46.072;14.474;2023-04-25T09:31:02;17.00;66.70
44607;DHT22;30315;46.072;14.474;2023-04-25T09:33:35;17.00;66.80
44607;DHT22;30315;46.072;14.474;2023-04-25T09:36:12;17.10;66.70
44607;DHT22;30315;46.072;14.474;2023-04-25T09:39:00;17.10;66.00
44607;DHT22;30315;46.072;14.474;2023-04-25T09:41:31;17.20;64.90
44607;DHT22;30315;46.072;14.474;2023-04-25T09:44:01;17.10;64.50
44607;DHT22;30315;46.072;14.474;2023-04-25T09:46:35;17.10;63.30
44607;DHT22;30315;46.072;14.474;2023-04-25T09:49:11;17.20;63.60
44607;DHT22;30315;46.072;14.474;2023-04-25T09:52:01;17.20;63.80
44607;DHT22;30315;46.072;14.474;2023-04-25T09:54:34;17.10;63.50
44607;DHT22;30315;46.072;14.474;2023-04-25T09:57:16;17.10;63.20
44607;DHT22;30315;46.072;14.474;2023-04-25T09:59:46;17.20;63.30
44607;DHT22;30315;46.072;14.474;2023-04-25T10:02:16;17.20;63.20
44607;DHT22;30315;46.072;14.474;2023-04-25T10:04:50;17.20;63.40
44607;DHT22;30315;46.072;14.474;2023-04-25T10:07:34;17.30;63.40
44607;DHT22;30315;46.072;14.474;2023-04-25T10:10:08;17.30;63.10
44607;DHT22;30315;46.072;14.474;2023-04-25T10:12:39;17.40;63.40
44607;DHT22;30315;46.072;14.474;2023-04-25T10:15:08;17.40;63.60
44607;DHT22;30315;46.072;14.474;2023-04-25T10:17:35;17.50;63.70
44607;DHT22;30315;46.072;14.474;2023-04-25T10:20:06;17.50;62.80
44607;DHT22;30315;46.072;14.474;2023-04-25T10:22:47;17.50;62.30
44607;DHT22;30315;46.072;14.474;2023-04-25T10:25:14;17.60;61.80
44607;DHT22;30315;46.072;14.474;2023-04-25T10:27:42;17.60;61.70
44607;DHT22;30315;46.072;14.474;2023-04-25T10:30:13;17.60;61.70
44607;DHT22;30315;46.072;14.474;2023-04-25T10:32:42;17.60;61.40
44607;DHT22;30315;46.072;14.474;2023-04-25T10:35:17;17.70;61.60
44607;DHT22;30315;46.072;14.474;2023-04-25T10:38:02;17.70;61.60
44607;DHT22;30315;46.072;14.474;2023-04-25T10:40:31;17.70;61.60
44607;DHT22;30315;46.072;14.474;2023-04-25T10:46:19;17.90;61.30
44607;DHT22;30315;46.072;14.474;2023-04-25T10:48:49;17.90;61.70
44607;DHT22;30315;46.072;14.474;2023-04-25T10:51:18;17.90;61.10
44607;DHT22;30315;46.072;14.474;2023-04-25T10:53:46;18.00;60.60
44607;DHT22;30315;46.072;14.474;2023-04-25T10:56:17;18.00;60.40
44607;DHT22;30315;46.072;14.474;2023-04-25T10:58:46;18.00;60.40
44607;DHT22;30315;46.072;14.474;2023-04-25T11:01:20;18.10;60.00
44607;DHT22;30315;46.072;14.474;2023-04-25T11:03:47;18.10;59.20
44607;DHT22;30315;46.072;14.474;2023-04-25T11:06:31;18.10;59.20
44607;DHT22;30315;46.072;14.474;2023-04-25T11:09:01;18.10;58.80
44607;DHT22;30315;46.072;14.474;2023-04-25T11:11:28;18.10;58.70
44607;DHT22;30315;46.072;14.474;2023-04-25T11:13:56;18.10;58.20
44607;DHT22;30315;46.072;14.474;2023-04-25T11:16:24;18.10;58.50
44607;DHT22;30315;46.072;14.474;2023-04-25T11:18:57;18.10;58.90
44607;DHT22;30315;46.072;14.474;2023-04-25T11:21:27;18.20;59.30
44607;DHT22;30315;46.072;14.474;2023-04-25T11:23:56;18.30;59.30
44607;DHT22;30315;46.072;14.474;2023-04-25T11:26:24;18.30;59.30
44607;DHT22;30315;46.072;14.474;2023-04-25T11:28:51;18.40;59.00
44607;DHT22;30315;46.072;14.474;2023-04-25T11:31:21;18.40;57.50
44607;DHT22;30315;46.072;14.474;2023-04-25T11:33:49;18.30;57.00
44607;DHT22;30315;46.072;14.474;2023-04-25T11:36:16;18.20;57.10
44607;DHT22;30315;46.072;14.474;2023-04-25T11:38:43;18.20;57.00
44607;DHT22;30315;46.072;14.474;2023-04-25T11:41:10;18.20;56.60
44607;DHT22;30315;46.072;14.474;2023-04-25T11:43:38;18.20;56.70
44607;DHT22;30315;46.072;14.474;2023-04-25T11:46:07;18.20;56.40
44607;DHT22;30315;46.072;14.474;2023-04-25T11:48:41;18.20;56.80
44607;DHT22;30315;46.072;14.474;2023-04-25T11:51:09;18.10;57.40
44607;DHT22;30315;46.072;14.474;2023-04-25T11:53:36;18.20;57.90
44607;DHT22;30315;46.072;14.474;2023-04-25T11:56:09;18.20;58.00
44607;DHT22;30315;46.072;14.474;2023-04-25T11:59:01;18.30;58.10
44607;DHT22;30315;46.072;14.474;2023-04-25T12:01:33;18.30;58.30
44607;DHT22;30315;46.072;14.474;2023-04-25T12:04:11;18.30;57.80
44607;DHT22;30315;46.072;14.474;2023-04-25T12:06:41;18.30;57.30
44607;DHT22;30315;46.072;14.474;2023-04-25T12:09:12;18.30;57.10
44607;DHT22;30315;46.072;14.474;2023-04-25T12:11:53;18.20;57.00
44607;DHT22;30315;46.072;14.474;2023-04-25T12:14:34;18.30;57.40
44607;DHT22;30315;46.072;14.474;2023-04-25T12:17:03;18.30;57.40
44607;DHT22;30315;46.072;14.474;2023-04-25T12:19:33;18.20;57.10
44607;DHT22;30315;46.072;14.474;2023-04-25T12:22:19;18.30;57.30
44607;DHT22;30315;46.072;14.474;2023-04-25T12:24:47;18.30;57.20
44607;DHT22;30315;46.072;14.474;2023-04-25T12:27:16;18.20;56.40
44607;DHT22;30315;46.072;14.474;2023-04-25T12:29:51;18.20;55.70
44607;DHT22;30315;46.072;14.474;2023-04-25T12:32:18;18.20;56.30
44607;DHT22;30315;46.072;14.474;2023-04-25T12:34:45;18.20;56.70
44607;DHT22;30315;46.072;14.474;2023-04-25T12:37:13;18.20;56.70
44607;DHT22;30315;46.072;14.474;2023-04-25T12:39:40;18.10;56.90
44607;DHT22;30315;46.072;14.474;2023-04-25T12:42:07;18.20;56.90
44607;DHT22;30315;46.072;14.474;2023-04-25T12:44:40;18.20;56.90
44607;DHT22;30315;46.072;14.474;2023-04-25T12:47:07;18.20;57.50
44607;DHT22;30315;46.072;14.474;2023-04-25T12:49:34;18.20;56.30
44607;DHT22;30315;46.072;14.474;2023-04-25T12:52:02;18.20;56.20
44607;DHT22;30315;46.072;14.474;2023-04-25T12:54:28;18.20;56.10
44607;DHT22;30315;46.072;14.474;2023-04-25T12:56:56;18.20;55.80
44607;DHT22;30315;46.072;14.474;2023-04-25T12:59:23;18.10;55.80
44607;DHT22;30315;46.072;14.474;2023-04-25T13:01:50;18.10;56.30
44607;DHT22;30315;46.072;14.474;2023-04-25T13:04:17;18.10;56.10
44607;DHT22;30315;46.072;14.474;2023-04-25T13:06:44;18.10;56.70
44607;DHT22;30315;46.072;14.474;2023-04-25T13:09:11;18.10;56.70
44607;DHT22;30315;46.072;14.474;2023-04-25T13:11:39;18.10;55.70
44607;DHT22;30315;46.072;14.474;2023-04-25T13:14:08;18.10;56.00
44607;DHT22;30315;46.072;14.474;2023-04-25T13:16:34;18.00;55.50
44607;DHT22;30315;46.072;14.474;2023-04-25T13:19:02;18.00;55.60
44607;DHT22;30315;46.072;14.474;2023-04-25T13:21:30;18.00;55.30
44607;DHT22;30315;46.072;14.474;2023-04-25T13:24:00;18.00;55.70
44607;DHT22;30315;46.072;14.474;2023-04-25T13:26:27;18.00;56.50
44607;DHT22;30315;46.072;14.474;2023-04-25T13:28:54;18.00;56.00
44607;DHT22;30315;46.072;14.474;2023-04-25T13:31:21;18.00;56.20
44607;DHT22;30315;46.072;14.474;2023-04-25T13:33:48;18.10;56.10
44607;DHT22;30315;46.072;14.474;2023-04-25T13:36:15;18.10;55.50
44607;DHT22;30315;46.072;14.474;2023-04-25T13:38:42;18.10;55.30
44607;DHT22;30315;46.072;14.474;2023-04-25T13:41:10;18.20;55.60
44607;DHT22;30315;46.072;14.474;2023-04-25T13:43:42;18.20;55.70
44607;DHT22;30315;46.072;14.474;2023-04-25T13:46:09;18.30;55.60
44607;DHT22;30315;46.072;14.474;2023-04-25T13:48:56;18.30;55.20
44607;DHT22;30315;46.072;14.474;2023-04-25T13:51:35;18.40;55.40
44607;DHT22;30315;46.072;14.474;2023-04-25T13:54:02;18.40;55.00
44607;DHT22;30315;46.072;14.474;2023-04-25T13:56:30;18.40;54.20
44607;DHT22;30315;46.072;14.474;2023-04-25T13:58:57;18.40;53.90
44607;DHT22;30315;46.072;14.474;2023-04-25T14:01:23;18.60;53.80
44607;DHT22;30315;46.072;14.474;2023-04-25T14:03:50;18.60;52.40
44607;DHT22;30315;46.072;14.474;2023-04-25T14:06:18;18.60;52.40
44607;DHT22;30315;46.072;14.474;2023-04-25T14:08:50;18.60;51.80
44607;DHT22;30315;46.072;14.474;2023-04-25T14:11:17;18.60;51.80
44607;DHT22;30315;46.072;14.474;2023-04-25T14:13:45;18.70;52.10
44607;DHT22;30315;46.072;14.474;2023-04-25T14:16:12;18.70;50.90
44607;DHT22;30315;46.072;14.474;2023-04-25T14:18:39;18.70;50.80
44607;DHT22;30315;46.072;14.474;2023-04-25T14:21:06;18.60;51.20
44607;DHT22;30315;46.072;14.474;2023-04-25T14:23:33;18.70;51.10
44607;DHT22;30315;46.072;14.474;2023-04-25T14:26:00;18.70;51.00
44607;DHT22;30315;46.072;14.474;2023-04-25T14:28:27;18.70;50.20
44607;DHT22;30315;46.072;14.474;2023-04-25T14:30:54;18.70;50.00
44607;DHT22;30315;46.072;14.474;2023-04-25T14:33:22;18.80;50.40
44607;DHT22;30315;46.072;14.474;2023-04-25T14:35:50;18.80;49.90
44607;DHT22;30315;46.072;14.474;2023-04-25T14:38:17;18.90;49.50
44607;DHT22;30315;46.072;14.474;2023-04-25T14:40:51;18.90;49.40
44607;DHT22;30315;46.072;14.474;2023-04-25T14:43:26;19.10;50.00
44607;DHT22;30315;46.072;14.474;2023-04-25T14:45:55;18.90;50.30
44607;DHT22;30315;46.072;14.474;2023-04-25T14:48:34;19.30;51.00
44607;DHT22;30315;46.072;14.474;2023-04-25T14:55:36;19.60;49.70
44607;DHT22;30315;46.072;14.474;2023-04-25T14:58:11;19.60;49.40
44607;DHT22;30315;46.072;14.474;2023-04-25T15:00:46;19.60;49.80
44607;DHT22;30315;46.072;14.474;2023-04-25T15:03:24;19.70;50.30
44607;DHT22;30315;46.072;14.474;2023-04-25T15:05:55;19.70;50.40
44607;DHT22;30315;46.072;14.474;2023-04-25T15:08:30;19.70;50.60
44607;DHT22;30315;46.072;14.474;2023-04-25T15:11:02;19.70;50.20
44607;DHT22;30315;46.072;14.474;2023-04-25T15:13:40;19.70;50.10
44607;DHT22;30315;46.072;14.474;2023-04-25T15:16:10;19.70;49.30
44607;DHT22;30315;46.072;14.474;2023-04-25T15:18:48;19.60;47.30
44607;DHT22;30315;46.072;14.474;2023-04-25T15:21:20;19.50;47.50
44607;DHT22;30315;46.072;14.474;2023-04-25T15:24:29;19.40;45.70
44607;DHT22;30315;46.072;14.474;2023-04-25T15:30:14;19.30;46.20
44607;DHT22;30315;46.072;14.474;2023-04-25T15:37:41;19.40;46.70
44607;DHT22;30315;46.072;14.474;2023-04-25T15:44:14;19.70;47.70
44607;DHT22;30315;46.072;14.474;2023-04-25T15:46:52;19.70;47.30
44607;DHT22;30315;46.072;14.474;2023-04-25T15:49:23;19.60;47.40
44607;DHT22;30315;46.072;14.474;2023-04-25T15:54:58;19.90;47.90
44607;DHT22;30315;46.072;14.474;2023-04-25T15:57:50;19.80;48.90
44607;DHT22;30315;46.072;14.474;2023-04-25T16:00:26;19.80;49.70
44607;DHT22;30315;46.072;14.474;2023-04-25T16:03:00;19.90;50.20
44607;DHT22;30315;46.072;14.474;2023-04-25T16:05:36;20.00;50.70
44607;DHT22;30315;46.072;14.474;2023-04-25T16:08:23;20.00;50.90
44607;DHT22;30315;46.072;14.474;2023-04-25T16:15:46;20.20;51.30
44607;DHT22;30315;46.072;14.474;2023-04-25T16:18:17;20.60;51.70
44607;DHT22;30315;46.072;14.474;2023-04-25T16:20:48;20.70;51.70
44607;DHT22;30315;46.072;14.474;2023-04-25T16:23:15;20.90;51.60
44607;DHT22;30315;46.072;14.474;2023-04-25T16:25:45;21.10;51.10
44607;DHT22;30315;46.072;14.474;2023-04-25T16:28:17;21.30;51.30
44607;DHT22;30315;46.072;14.474;2023-04-25T16:30:46;21.40;50.80
44607;DHT22;30315;46.072;14.474;2023-04-25T16:33:31;21.70;50.50
44607;DHT22;30315;46.072;14.474;2023-04-25T16:36:32;21.60;49.30
44607;DHT22;30315;46.072;14.474;2023-04-25T16:39:03;21.60;49.10
44607;DHT22;30315;46.072;14.474;2023-04-25T16:42:10;21.50;49.20
44607;DHT22;30315;46.072;14.474;2023-04-25T16:44:43;21.60;49.60
44607;DHT22;30315;46.072;14.474;2023-04-25T16:47:12;21.60;49.60
44607;DHT22;30315;46.072;14.474;2023-04-25T16:50:23;21.70;49.40
44607;DHT22;30315;46.072;14.474;2023-04-25T16:53:03;21.70;48.90
44607;DHT22;30315;46.072;14.474;2023-04-25T16:55:40;21.70;48.90
44607;DHT22;30315;46.072;14.474;2023-04-25T16:58:17;21.80;48.90
44607;DHT22;30315;46.072;14.474;2023-04-25T17:00:56;21.70;48.50
44607;DHT22;30315;46.072;14.474;2023-04-25T17:03:38;21.60;48.30
44607;DHT22;30315;46.072;14.474;2023-04-25T17:06:15;21.60;48.30
44607;DHT22;30315;46.072;14.474;2023-04-25T17:08:47;21.50;48.30
44607;DHT22;30315;46.072;14.474;2023-04-25T17:11:29;21.40;48.60
44607;DHT22;30315;46.072;14.474;2023-04-25T17:13:58;21.20;48.80